createdAt,value
2022-11-07T00:00:01.883Z,954.9400024
2022-11-07T00:01:02.569Z,954.9093628
2022-11-07T00:02:03.248Z,954.9117432
2022-11-07T00:03:03.926Z,954.9137573
2022-11-07T00:04:04.466Z,954.9849854
2022-11-07T00:05:05.183Z,954.9558105
2022-11-07T00:06:06.345Z,955.0002441
2022-11-07T00:07:06.932Z,954.9834595
2022-11-07T00:08:08.120Z,954.9414063
2022-11-07T00:09:08.804Z,954.9415894
2022-11-07T00:10:09.471Z,954.9187622
2022-11-07T00:11:10.139Z,954.9124146
2022-11-07T00:12:10.807Z,954.9059448
2022-11-07T00:13:11.484Z,954.9328003
2022-11-07T00:14:12.013Z,954.8950195
2022-11-07T00:15:12.613Z,954.9198608
2022-11-07T00:16:14.036Z,954.9328003
2022-11-07T00:17:14.667Z,954.9296875
2022-11-07T00:18:16.043Z,954.8892822
2022-11-07T00:19:16.698Z,954.9280396
2022-11-07T00:20:17.309Z,954.9411011
2022-11-07T00:21:17.970Z,954.9847412
2022-11-07T00:22:18.564Z,954.9334106
2022-11-07T00:23:19.197Z,954.9389648
2022-11-07T00:24:19.764Z,954.9384155
2022-11-07T00:25:21.229Z,954.8649902
2022-11-07T00:26:52.169Z,954.9055176
2022-11-07T00:27:52.606Z,954.9353027
2022-11-07T00:28:53.331Z,954.9331055
2022-11-07T00:29:54.509Z,954.9272461
2022-11-07T00:30:55.179Z,954.9137573
2022-11-07T00:31:55.825Z,954.9089355
2022-11-07T00:33:00.179Z,954.9553223
2022-11-07T00:33:57.050Z,954.9790039
2022-11-07T00:34:58.485Z,954.9915771
2022-11-07T00:35:59.218Z,955.024231
2022-11-07T00:37:00.085Z,955.007019
2022-11-07T00:38:00.677Z,954.9612427
2022-11-07T00:39:01.907Z,954.963501
2022-11-07T00:40:02.661Z,954.9468994
2022-11-07T00:41:03.320Z,954.9790649
2022-11-07T00:42:04.057Z,954.9920044
2022-11-07T00:43:04.586Z,955.050293
2022-11-07T00:44:05.244Z,955.088623
2022-11-07T00:45:05.906Z,955.1323242
2022-11-07T00:46:06.667Z,955.161377
2022-11-07T00:47:07.379Z,955.1712646
2022-11-07T00:48:08.540Z,955.1592407
2022-11-07T00:49:09.101Z,955.1706543
2022-11-07T00:50:09.600Z,955.2276611
2022-11-07T00:51:10.225Z,955.2017212
2022-11-07T00:52:10.973Z,955.192749
2022-11-07T00:53:11.826Z,955.1220093
2022-11-07T00:54:12.143Z,955.1429443
2022-11-07T00:55:12.726Z,955.1928101
2022-11-07T00:56:13.298Z,955.1815796
2022-11-07T00:57:14.015Z,955.1940918
2022-11-07T00:58:15.513Z,955.2781372
2022-11-07T00:59:16.140Z,955.2748413
2022-11-07T01:00:16.739Z,955.2893677
2022-11-07T01:01:17.409Z,955.2407837
2022-11-07T01:02:18.291Z,955.1987305
2022-11-07T01:03:18.894Z,955.234314
2022-11-07T01:04:19.552Z,955.2866211
2022-11-07T01:05:20.864Z,955.2828369
2022-11-07T01:06:52.194Z,955.2650146
2022-11-07T01:07:52.956Z,955.2148438
2022-11-07T01:08:54.349Z,955.210022
2022-11-07T01:09:55.176Z,955.1799316
2022-11-07T01:10:56.116Z,955.1824951
2022-11-07T01:11:56.934Z,955.1102905
2022-11-07T01:12:57.755Z,955.0671387
2022-11-07T01:13:58.330Z,955.114502
2022-11-07T01:14:59.244Z,955.173645
2022-11-07T01:16:00.006Z,955.1904907
2022-11-07T01:17:01.362Z,955.2087402
2022-11-07T01:18:02.050Z,955.178894
2022-11-07T01:19:03.416Z,955.2022095
2022-11-07T01:20:04.143Z,955.2220459
2022-11-07T01:21:04.747Z,955.241394
2022-11-07T01:22:05.277Z,955.2396851
2022-11-07T01:23:05.974Z,955.2402954
2022-11-07T01:24:06.535Z,955.2235107
2022-11-07T01:25:07.197Z,955.2440796
2022-11-07T01:26:07.854Z,955.1939087
2022-11-07T01:27:08.464Z,955.2312012
2022-11-07T01:28:09.048Z,955.2045288
2022-11-07T01:29:10.350Z,955.2157593
2022-11-07T01:30:10.943Z,955.229248
2022-11-07T01:31:11.550Z,955.2029419
2022-11-07T01:32:12.158Z,955.1876831
2022-11-07T01:33:13.150Z,955.2050171
2022-11-07T01:34:13.344Z,955.1869507
2022-11-07T01:35:14.873Z,955.211731
2022-11-07T01:36:15.535Z,955.1749878
2022-11-07T01:37:16.119Z,955.2122803
2022-11-07T01:38:16.727Z,955.2140503
2022-11-07T01:39:17.836Z,955.1693115
2022-11-07T01:40:18.655Z,955.1730957
2022-11-07T01:41:19.256Z,955.1599731
2022-11-07T01:42:20.432Z,955.1637573
2022-11-07T01:43:51.438Z,955.1479492
2022-11-07T01:44:52.044Z,955.168457
2022-11-07T01:45:53.340Z,955.1617432
2022-11-07T01:46:53.905Z,955.1855469
2022-11-07T01:47:54.509Z,955.1412354
2022-11-07T01:48:56.048Z,955.1223145
2022-11-07T01:49:56.688Z,955.069458
2022-11-07T01:50:57.356Z,955.0482788
2022-11-07T01:51:57.994Z,955.03125
2022-11-07T01:52:59.530Z,955.0925293
2022-11-07T01:54:00.207Z,955.0634155
2022-11-07T01:55:00.799Z,955.0374756
2022-11-07T01:56:01.484Z,955.02771
2022-11-07T01:57:02.096Z,955.0219727
2022-11-07T01:58:02.767Z,955.0509644
2022-11-07T01:59:04.034Z,955.0531006
2022-11-07T02:00:04.659Z,955.0568848
2022-11-07T02:01:05.394Z,955.0568848
2022-11-07T02:02:06.196Z,955.0577393
2022-11-07T02:03:06.687Z,955.0307617
2022-11-07T02:04:07.414Z,955.0275269
2022-11-07T02:05:07.940Z,955.008728
2022-11-07T02:06:08.553Z,955.0167236
2022-11-07T02:07:09.276Z,955.0301514
2022-11-07T02:08:09.921Z,955.0510864
2022-11-07T02:09:11.434Z,955.0176392
2022-11-07T02:10:12.018Z,955.0617676
2022-11-07T02:11:13.363Z,954.9932251
2022-11-07T02:12:13.997Z,954.979248
2022-11-07T02:13:14.861Z,954.9726563
2022-11-07T02:14:15.294Z,954.9763794
2022-11-07T02:15:15.936Z,954.9989624
2022-11-07T02:16:16.625Z,954.9589233
2022-11-07T02:17:17.350Z,954.9472046
2022-11-07T02:18:18.013Z,954.8883057
2022-11-07T02:19:19.375Z,954.8624878
2022-11-07T02:20:50.655Z,954.8743896
2022-11-07T02:21:51.308Z,954.8909302
2022-11-07T02:22:51.884Z,954.9302979
2022-11-07T02:23:52.605Z,954.9092407
2022-11-07T02:24:53.355Z,954.9048462
2022-11-07T02:25:54.053Z,954.9371338
2022-11-07T02:26:54.741Z,954.9046021
2022-11-07T02:27:55.376Z,954.9602051
2022-11-07T02:28:57.058Z,954.8945313
2022-11-07T02:29:57.749Z,954.8677979
2022-11-07T02:30:59.011Z,954.8424072
2022-11-07T02:31:59.664Z,954.8258057
2022-11-07T02:33:00.313Z,954.8347778
2022-11-07T02:34:00.929Z,954.8101807
2022-11-07T02:35:01.644Z,954.8203125
2022-11-07T02:36:02.890Z,954.7976074
2022-11-07T02:37:03.557Z,954.8007202
2022-11-07T02:38:04.208Z,954.7520142
2022-11-07T02:39:05.499Z,954.7849731
2022-11-07T02:40:06.303Z,954.7821045
2022-11-07T02:41:06.935Z,954.7697144
2022-11-07T02:42:07.575Z,954.815918
2022-11-07T02:43:08.247Z,954.8027954
2022-11-07T02:44:08.827Z,954.833374
2022-11-07T02:45:09.529Z,954.7790527
2022-11-07T02:46:10.158Z,954.7828369
2022-11-07T02:47:10.843Z,954.7564087
2022-11-07T02:48:11.500Z,954.7675781
2022-11-07T02:49:13.019Z,954.791748
2022-11-07T02:50:13.682Z,954.7544556
2022-11-07T02:51:14.348Z,954.7748413
2022-11-07T02:52:15.024Z,954.7876587
2022-11-07T02:53:16.955Z,954.7396851
2022-11-07T02:54:17.067Z,954.7455444
2022-11-07T02:55:17.687Z,954.7157593
2022-11-07T02:56:18.315Z,954.7340698
2022-11-07T02:57:19.397Z,954.7555542
2022-11-07T02:58:50.706Z,954.7647095
2022-11-07T02:59:51.851Z,954.7645264
2022-11-07T03:00:52.465Z,954.748291
2022-11-07T03:01:53.213Z,954.7907715
2022-11-07T03:02:53.915Z,954.8084106
2022-11-07T03:03:54.450Z,954.8467407
2022-11-07T03:04:56.033Z,954.8643188
2022-11-07T03:05:56.687Z,954.8937988
2022-11-07T03:06:57.348Z,954.9567261
2022-11-07T03:07:58.054Z,955.0120239
2022-11-07T03:08:58.754Z,954.9647827
2022-11-07T03:10:00.338Z,954.9709473
2022-11-07T03:11:00.920Z,955.0125122
2022-11-07T03:12:01.569Z,954.9498291
2022-11-07T03:13:02.219Z,955.0095215
2022-11-07T03:14:02.894Z,955.0665894
2022-11-07T03:15:03.728Z,955.0211182
2022-11-07T03:16:04.204Z,955.015686
2022-11-07T03:17:04.790Z,954.9950562
2022-11-07T03:18:05.485Z,954.9525146
2022-11-07T03:19:07.021Z,954.9561157
2022-11-07T03:20:07.729Z,954.9924927
2022-11-07T03:21:09.349Z,954.96521
2022-11-07T03:22:09.946Z,954.9666138
2022-11-07T03:23:10.570Z,954.9848633
2022-11-07T03:24:11.252Z,954.989502
2022-11-07T03:25:11.926Z,954.9528198
2022-11-07T03:26:12.563Z,954.8988037
2022-11-07T03:27:13.166Z,954.979248
2022-11-07T03:28:13.795Z,954.9650879
2022-11-07T03:29:15.023Z,954.9779663
2022-11-07T03:30:15.734Z,955.0120239
2022-11-07T03:31:16.396Z,954.9671631
2022-11-07T03:32:17.024Z,954.9857788
2022-11-07T03:33:18.170Z,954.975769
2022-11-07T03:34:49.504Z,954.9636841
2022-11-07T03:35:50.581Z,954.9647827
2022-11-07T03:36:51.325Z,954.9570313
2022-11-07T03:37:51.896Z,955.0020142
2022-11-07T03:38:53.374Z,954.9954834
2022-11-07T03:39:54.818Z,954.9963989
2022-11-07T03:40:55.556Z,955.0356445
2022-11-07T03:41:56.246Z,954.9606323
2022-11-07T03:42:56.850Z,954.9653931
2022-11-07T03:43:57.447Z,954.9490356
2022-11-07T03:44:58.120Z,954.987793
2022-11-07T03:45:58.789Z,954.9801636
2022-11-07T03:47:00.069Z,954.9245605
2022-11-07T03:48:00.656Z,954.9781494
2022-11-07T03:49:01.238Z,954.9906006
2022-11-07T03:50:02.837Z,954.9684448
2022-11-07T03:51:03.534Z,954.9732666
2022-11-07T03:52:05.083Z,954.9924927
2022-11-07T03:53:05.670Z,955.0059204
2022-11-07T03:54:06.215Z,954.9978027
2022-11-07T03:55:06.791Z,954.9837646
2022-11-07T03:56:07.425Z,954.9969482
2022-11-07T03:57:08.070Z,954.9902954
2022-11-07T03:58:08.705Z,955.0413818
2022-11-07T03:59:09.391Z,955.0495605
2022-11-07T04:00:10.827Z,955.0749512
2022-11-07T04:01:11.495Z,955.0599976
2022-11-07T04:02:12.348Z,955.0653687
2022-11-07T04:03:13.117Z,955.1374512
2022-11-07T04:04:13.433Z,955.1081543
2022-11-07T04:05:15.036Z,955.0714111
2022-11-07T04:06:15.762Z,955.1155396
2022-11-07T04:07:16.376Z,955.1265869
2022-11-07T04:08:17.045Z,955.1390381
2022-11-07T04:09:17.630Z,955.1598511
2022-11-07T04:10:49.210Z,955.1356201
2022-11-07T04:11:49.905Z,955.1759644
2022-11-07T04:12:50.755Z,955.2458496
2022-11-07T04:13:51.388Z,955.2792969
2022-11-07T04:14:52.012Z,955.2902832
2022-11-07T04:15:52.622Z,955.2966919
2022-11-07T04:16:53.213Z,955.2784424
2022-11-07T04:17:54.926Z,955.3370361
2022-11-07T04:18:55.543Z,955.3482056
2022-11-07T04:19:57.024Z,955.3556519
2022-11-07T04:20:57.624Z,955.3982544
2022-11-07T04:21:58.217Z,955.428772
2022-11-07T04:22:58.900Z,955.4174805
2022-11-07T04:23:59.513Z,955.3996582
2022-11-07T04:25:00.204Z,955.4168701
2022-11-07T04:26:00.899Z,955.4223633
2022-11-07T04:27:01.485Z,955.4404907
2022-11-07T04:28:02.189Z,955.4112549
2022-11-07T04:29:02.860Z,955.4047852
2022-11-07T04:30:04.334Z,955.4096069
2022-11-07T04:31:05.015Z,955.4087524
2022-11-07T04:32:06.529Z,955.4015503
2022-11-07T04:33:07.208Z,955.3740845
2022-11-07T04:34:07.780Z,955.4191895
2022-11-07T04:35:08.402Z,955.4128418
2022-11-07T04:36:09.905Z,955.4349976
2022-11-07T04:37:10.504Z,955.4031372
2022-11-07T04:38:11.158Z,955.3571777
2022-11-07T04:39:11.833Z,955.3786011
2022-11-07T04:40:13.375Z,955.3598633
2022-11-07T04:41:14.004Z,955.3526611
2022-11-07T04:42:14.636Z,955.3595581
2022-11-07T04:43:15.611Z,955.3521729
2022-11-07T04:44:15.846Z,955.3456421
2022-11-07T04:45:16.475Z,955.3309326
2022-11-07T04:46:17.096Z,955.3283691
2022-11-07T04:47:18.199Z,955.2851563
2022-11-07T04:48:49.338Z,955.2857056
2022-11-07T04:49:50.680Z,955.2550049
2022-11-07T04:50:51.356Z,955.2945557
2022-11-07T04:51:52.004Z,955.3021851
2022-11-07T04:52:52.651Z,955.3112793
2022-11-07T04:53:53.288Z,955.3364868
2022-11-07T04:54:53.851Z,955.3369751
2022-11-07T04:55:54.576Z,955.3353271
2022-11-07T04:56:55.249Z,955.3616943
2022-11-07T04:57:55.821Z,955.350769
2022-11-07T04:58:56.472Z,955.3250122
2022-11-07T04:59:58.059Z,955.3473511
2022-11-07T05:00:58.682Z,955.3150024
2022-11-07T05:01:59.509Z,955.3376465
2022-11-07T05:03:00.011Z,955.3551636
2022-11-07T05:04:00.614Z,955.3428345
2022-11-07T05:05:01.144Z,955.4121704
2022-11-07T05:06:01.869Z,955.4023438
2022-11-07T05:07:03.012Z,955.4436035
2022-11-07T05:08:03.666Z,955.4570313
2022-11-07T05:09:04.368Z,955.4829712
2022-11-07T05:10:08.361Z,955.5032959
2022-11-07T05:11:06.053Z,955.4732056
2022-11-07T05:12:06.677Z,955.5231323
2022-11-07T05:13:07.378Z,955.5186768
2022-11-07T05:14:08.063Z,955.5412598
2022-11-07T05:15:08.654Z,955.5435791
2022-11-07T05:16:09.331Z,955.5531006
2022-11-07T05:17:09.977Z,955.5471802
2022-11-07T05:18:11.466Z,955.5406494
2022-11-07T05:19:12.172Z,955.4684448
2022-11-07T05:20:13.561Z,955.5635986
2022-11-07T05:21:14.203Z,955.545166
2022-11-07T05:22:14.912Z,955.5806274
2022-11-07T05:23:16.490Z,955.6040649
2022-11-07T05:24:16.209Z,955.6095581
2022-11-07T05:25:16.826Z,955.6046143
2022-11-07T05:26:48.235Z,955.5368652
2022-11-07T05:27:48.796Z,955.5734253
2022-11-07T05:28:49.436Z,955.5369263
2022-11-07T05:29:50.567Z,955.5541382
2022-11-07T05:30:51.827Z,955.6057739
2022-11-07T05:31:52.439Z,955.6105347
2022-11-07T05:32:53.086Z,955.5976563
2022-11-07T05:33:53.724Z,955.5578003
2022-11-07T05:34:54.304Z,955.5609131
2022-11-07T05:35:55.529Z,955.5534668
2022-11-07T05:36:56.108Z,955.539917
2022-11-07T05:37:56.785Z,955.5454102
2022-11-07T05:38:57.553Z,955.5275879
2022-11-07T05:39:58.267Z,955.5593262
2022-11-07T05:40:59.844Z,955.5803223
2022-11-07T05:42:00.528Z,955.586731
2022-11-07T05:43:01.167Z,955.5631104
2022-11-07T05:44:01.799Z,955.5754395
2022-11-07T05:45:02.469Z,955.5855713
2022-11-07T05:46:03.125Z,955.578125
2022-11-07T05:47:03.794Z,955.583374
2022-11-07T05:48:04.375Z,955.6102905
2022-11-07T05:49:05.364Z,955.621582
2022-11-07T05:50:06.582Z,955.6494751
2022-11-07T05:51:07.236Z,955.6428833
2022-11-07T05:52:08.074Z,955.6858521
2022-11-07T05:53:08.791Z,955.6486206
2022-11-07T05:54:09.310Z,955.6065674
2022-11-07T05:55:09.975Z,955.6209106
2022-11-07T05:56:10.601Z,955.6054077
2022-11-07T05:57:11.246Z,955.654541
2022-11-07T05:58:11.840Z,955.6303101
2022-11-07T05:59:12.476Z,955.6486206
2022-11-07T06:00:14.181Z,955.6534424
2022-11-07T06:01:14.731Z,955.6539917
2022-11-07T06:02:15.567Z,955.6217041
2022-11-07T06:03:16.428Z,955.6732788
2022-11-07T06:04:16.630Z,955.649231
2022-11-07T06:05:48.651Z,955.6799316
2022-11-07T06:06:49.280Z,955.6364136
2022-11-07T06:07:49.942Z,955.6831055
2022-11-07T06:08:50.675Z,955.6599731
2022-11-07T06:09:51.289Z,955.6141968
2022-11-07T06:10:52.930Z,955.6329956
2022-11-07T06:11:53.528Z,955.6620483
2022-11-07T06:12:56.180Z,955.7183838
2022-11-07T06:13:54.850Z,955.7214966
2022-11-07T06:14:55.565Z,955.7365723
2022-11-07T06:15:56.206Z,955.7880249
2022-11-07T06:16:56.904Z,955.7585449
2022-11-07T06:17:58.020Z,955.7874146
2022-11-07T06:18:58.622Z,955.7888794
2022-11-07T06:19:59.227Z,955.7700195
2022-11-07T06:21:00.941Z,955.8085938
2022-11-07T06:22:01.593Z,955.7959595
2022-11-07T06:23:02.281Z,955.8465576
2022-11-07T06:24:03.534Z,955.8131104
2022-11-07T06:25:03.578Z,955.8127441
2022-11-07T06:26:04.225Z,955.8325195
2022-11-07T06:27:04.841Z,955.8490601
2022-11-07T06:28:05.577Z,955.8382568
2022-11-07T06:29:06.288Z,955.8897095
2022-11-07T06:30:07.044Z,955.9040527
2022-11-07T06:31:08.387Z,955.9412231
2022-11-07T06:32:09.605Z,955.9534302
2022-11-07T06:33:10.302Z,955.9678345
2022-11-07T06:34:10.964Z,955.9463501
2022-11-07T06:35:11.568Z,955.9692383
2022-11-07T06:36:12.218Z,955.9835815
2022-11-07T06:37:13.541Z,955.9526367
2022-11-07T06:38:14.176Z,956.0231323
2022-11-07T06:39:14.862Z,956.0800171
2022-11-07T06:40:15.556Z,956.1073608
2022-11-07T06:41:47.358Z,956.1001587
2022-11-07T06:42:48.045Z,956.0888062
2022-11-07T06:43:48.713Z,956.064209
2022-11-07T06:44:49.425Z,956.0932007
2022-11-07T06:45:50.028Z,956.0618896
2022-11-07T06:46:51.103Z,956.0801392
2022-11-07T06:47:51.677Z,956.0608521
2022-11-07T06:48:53.415Z,956.088501
2022-11-07T06:49:54.076Z,956.076416
2022-11-07T06:50:55.551Z,956.0562744
2022-11-07T06:51:56.215Z,956.1012573
2022-11-07T06:52:56.892Z,956.1539307
2022-11-07T06:53:57.669Z,956.1049194
2022-11-07T06:54:58.420Z,956.1613159
2022-11-07T06:55:59.084Z,956.1477051
2022-11-07T06:56:59.796Z,956.2234497
2022-11-07T06:58:00.401Z,956.2009277
2022-11-07T06:59:01.198Z,956.1918945
2022-11-07T07:00:01.866Z,956.2299194
2022-11-07T07:01:03.456Z,956.1945801
2022-11-07T07:02:04.135Z,956.222168
2022-11-07T07:03:05.499Z,956.2416992
2022-11-07T07:04:06.045Z,956.2456055
2022-11-07T07:05:06.700Z,956.2613525
2022-11-07T07:06:07.337Z,956.2728271
2022-11-07T07:07:08.607Z,956.2633057
2022-11-07T07:08:09.219Z,956.2956543
2022-11-07T07:09:09.907Z,956.3178711
2022-11-07T07:10:10.542Z,956.3390503
2022-11-07T07:11:11.971Z,956.3934326
2022-11-07T07:12:12.657Z,956.3384399
2022-11-07T07:13:13.499Z,956.382019
2022-11-07T07:14:13.912Z,956.4112549
2022-11-07T07:15:14.637Z,956.390625
2022-11-07T07:16:15.339Z,956.4480591
2022-11-07T07:17:16.494Z,956.4483643
2022-11-07T07:18:47.479Z,956.4593506
2022-11-07T07:19:48.147Z,956.4745483
2022-11-07T07:20:49.569Z,956.494751
2022-11-07T07:21:50.637Z,956.4824829
2022-11-07T07:22:57.814Z,956.5267334
2022-11-07T07:23:51.924Z,956.5574951
2022-11-07T07:24:52.522Z,956.5604858
2022-11-07T07:25:53.232Z,956.5811157
2022-11-07T07:26:53.916Z,956.5510864
2022-11-07T07:27:54.691Z,956.5701294
2022-11-07T07:28:55.346Z,956.5548706
2022-11-07T07:29:56.823Z,956.5415039
2022-11-07T07:30:58.041Z,956.5491943
2022-11-07T07:31:58.669Z,956.6009521
2022-11-07T07:32:59.318Z,956.5770264
2022-11-07T07:33:59.931Z,956.5493774
2022-11-07T07:35:00.577Z,956.5575562
2022-11-07T07:36:01.232Z,956.5622559
2022-11-07T07:37:02.882Z,956.5402832
2022-11-07T07:38:03.628Z,956.529541
2022-11-07T07:39:04.195Z,956.5618896
2022-11-07T07:40:04.817Z,956.5825806
2022-11-07T07:41:06.017Z,956.5402832
2022-11-07T07:42:06.742Z,956.5524902
2022-11-07T07:43:07.398Z,956.5854492
2022-11-07T07:44:07.954Z,956.5928955
2022-11-07T07:45:08.570Z,956.5952148
2022-11-07T07:46:09.135Z,956.5739136
2022-11-07T07:47:11.422Z,956.5727539
2022-11-07T07:48:10.640Z,956.5567017
2022-11-07T07:49:11.874Z,956.5371704
2022-11-07T07:50:12.466Z,956.5545044
2022-11-07T07:51:13.985Z,956.552002
2022-11-07T07:52:14.682Z,956.6029053
2022-11-07T07:53:46.571Z,956.6012573
2022-11-07T07:54:47.169Z,956.5899048
2022-11-07T07:55:47.719Z,956.5695801
2022-11-07T07:56:48.351Z,956.5305176
2022-11-07T07:57:49.035Z,956.5254517
2022-11-07T07:58:49.708Z,956.5111084
2022-11-07T07:59:50.985Z,956.4771729
2022-11-07T08:00:51.774Z,956.4968262
2022-11-07T08:01:56.806Z,956.482666
2022-11-07T08:02:54.229Z,956.5438843
2022-11-07T08:04:01.946Z,956.5044556
2022-11-07T08:04:55.583Z,956.5446167
2022-11-07T08:05:56.158Z,956.5234375
2022-11-07T08:06:57.577Z,956.4678345
2022-11-07T08:07:58.446Z,956.5203247
2022-11-07T08:08:59.256Z,956.5
2022-11-07T08:10:09.815Z,956.5239258
2022-11-07T08:11:01.505Z,956.5328369
2022-11-07T08:12:02.289Z,956.571228
2022-11-07T08:13:04.051Z,956.5067139
2022-11-07T08:14:04.595Z,956.4522095
2022-11-07T08:15:05.276Z,956.5168457
2022-11-07T08:16:05.931Z,956.5139771
2022-11-07T08:17:06.681Z,956.5205688
2022-11-07T08:18:07.441Z,956.5176392
2022-11-07T08:19:08.729Z,956.5006104
2022-11-07T08:20:09.357Z,956.5229492
2022-11-07T08:21:10.569Z,956.5328979
2022-11-07T08:22:11.231Z,956.512207
2022-11-07T08:23:15.990Z,956.5426025
2022-11-07T08:24:12.508Z,956.5266113
2022-11-07T08:25:13.087Z,956.5028687
2022-11-07T08:26:13.674Z,956.4406738
2022-11-07T08:27:14.312Z,956.4528198
2022-11-07T08:28:14.924Z,956.3638916
2022-11-07T08:29:46.009Z,956.3872681
2022-11-07T08:30:46.665Z,956.3462524
2022-11-07T08:31:47.937Z,956.3817139
2022-11-07T08:32:48.662Z,956.3400269
2022-11-07T08:33:49.390Z,956.3719482
2022-11-07T08:34:49.905Z,956.3453369
2022-11-07T08:35:50.729Z,956.4051514
2022-11-07T08:36:51.327Z,956.3746948
2022-11-07T08:37:52.021Z,956.3915405
2022-11-07T08:38:52.690Z,956.3895874
2022-11-07T08:39:53.308Z,956.3605957
2022-11-07T08:40:53.918Z,956.3779907
2022-11-07T08:41:55.346Z,956.3503418
2022-11-07T08:42:56.013Z,956.3557739
2022-11-07T08:43:56.933Z,956.3370361
2022-11-07T08:44:57.563Z,956.3076782
2022-11-07T08:45:58.163Z,956.3009644
2022-11-07T08:46:58.771Z,956.3026733
2022-11-07T08:47:59.540Z,956.3027954
2022-11-07T08:49:00.205Z,956.2776489
2022-11-07T08:50:00.828Z,956.2806396
2022-11-07T08:51:02.284Z,956.2698975
2022-11-07T08:52:03.811Z,956.2606201
2022-11-07T08:53:04.441Z,956.3024902
2022-11-07T08:54:05.057Z,956.3021851
2022-11-07T08:55:05.689Z,956.3168945
2022-11-07T08:56:06.225Z,956.3306274
2022-11-07T08:57:08.124Z,956.3279419
2022-11-07T08:58:08.738Z,956.3276367
2022-11-07T08:59:09.299Z,956.3537598
2022-11-07T09:00:09.973Z,956.3495483
2022-11-07T09:01:10.685Z,956.3745117
2022-11-07T09:03:08.369Z,956.352478
2022-11-07T09:04:13.474Z,956.3463135
2022-11-07T09:05:14.173Z,956.3779907
2022-11-07T09:06:45.590Z,956.3776855
2022-11-07T09:07:46.854Z,956.4031982
2022-11-07T09:08:47.600Z,956.3546753
2022-11-07T09:09:48.240Z,956.3844604
2022-11-07T09:10:48.946Z,956.3961182
2022-11-07T09:11:50.700Z,956.3876343
2022-11-07T09:12:51.348Z,956.3379517
2022-11-07T09:13:52.025Z,956.3666992
2022-11-07T09:14:52.706Z,956.3345337
2022-11-07T09:15:53.338Z,956.3410034
2022-11-07T09:16:55.359Z,956.380249
2022-11-07T09:17:56.024Z,956.3392944
2022-11-07T09:18:56.709Z,956.3723145
2022-11-07T09:19:57.330Z,956.3599854
2022-11-07T09:20:57.936Z,956.3918457
2022-11-07T09:21:59.334Z,956.3203125
2022-11-07T09:23:00.553Z,956.3242798
2022-11-07T09:24:01.248Z,956.3265381
2022-11-07T09:25:01.869Z,956.3165894
2022-11-07T09:26:02.530Z,956.2940674
2022-11-07T09:27:03.073Z,956.2620239
2022-11-07T09:28:03.671Z,956.2723389
2022-11-07T09:29:04.303Z,956.2659302
2022-11-07T09:30:05.547Z,956.2525635
2022-11-07T09:31:06.167Z,956.2841187
2022-11-07T09:32:30.489Z,956.2871704
2022-11-07T09:33:07.862Z,956.2764282
2022-11-07T09:34:08.512Z,956.2991943
2022-11-07T09:35:09.160Z,956.3096924
2022-11-07T09:36:09.806Z,956.3164063
2022-11-07T09:37:11.067Z,956.2982788
2022-11-07T09:38:11.636Z,956.3275146
2022-11-07T09:39:12.280Z,956.3265381
2022-11-07T09:40:12.931Z,956.3134155
2022-11-07T09:41:46.102Z,956.3114624
2022-11-07T09:42:46.769Z,956.3262329
2022-11-07T09:43:47.515Z,956.3317871
2022-11-07T09:44:48.358Z,956.298584
2022-11-07T09:45:49.019Z,956.22052
2022-11-07T09:46:49.682Z,956.2662354
2022-11-07T09:47:50.737Z,956.1959229
2022-11-07T09:48:51.325Z,956.2396851
2022-11-07T09:49:51.983Z,956.2503052
2022-11-07T09:50:52.650Z,956.2218628
2022-11-07T09:51:54.086Z,956.225769
2022-11-07T09:52:54.711Z,956.2156372
2022-11-07T09:53:55.379Z,956.2228394
2022-11-07T09:54:56.080Z,956.1991577
2022-11-07T09:55:56.677Z,956.1819458
2022-11-07T09:56:57.287Z,956.1793823
2022-11-07T09:57:57.891Z,956.2134399
2022-11-07T09:58:58.482Z,956.1986084
2022-11-07T09:59:59.177Z,956.2019043
2022-11-07T10:01:00.489Z,956.1936035
2022-11-07T10:02:01.608Z,956.1590576
2022-11-07T10:03:02.230Z,956.1845093
2022-11-07T10:04:24.577Z,956.1810303
2022-11-07T10:05:03.574Z,956.211853
2022-11-07T10:06:04.227Z,956.1834106
2022-11-07T10:07:05.302Z,956.2148438
2022-11-07T10:08:05.990Z,956.1940918
2022-11-07T10:09:06.588Z,956.1564331
2022-11-07T10:10:07.327Z,956.1257935
2022-11-07T10:11:07.912Z,956.0993652
2022-11-07T10:12:09.052Z,956.1618652
2022-11-07T10:13:09.609Z,956.1445923
2022-11-07T10:14:10.179Z,956.1681519
2022-11-07T10:15:10.872Z,956.1271973
2022-11-07T10:16:11.462Z,956.152832
2022-11-07T10:17:12.131Z,956.1831055
2022-11-07T10:18:12.737Z,956.1320801
2022-11-07T10:19:14.047Z,956.1604614
2022-11-07T10:20:45.030Z,956.1542358
2022-11-07T10:21:45.589Z,956.116394
2022-11-07T10:22:46.783Z,956.1383057
2022-11-07T10:23:47.343Z,956.1205444
2022-11-07T10:24:47.900Z,956.1152954
2022-11-07T10:25:49.417Z,956.1073608
2022-11-07T10:26:50.024Z,956.1086426
2022-11-07T10:27:50.761Z,956.1314087
2022-11-07T10:28:51.350Z,956.100708
2022-11-07T10:29:52.975Z,956.097168
2022-11-07T10:30:53.595Z,956.0625
2022-11-07T10:31:54.108Z,956.0529175
2022-11-07T10:32:55.267Z,956.0621338
2022-11-07T10:33:55.859Z,956.1082764
2022-11-07T10:34:56.510Z,956.0892944
2022-11-07T10:35:57.086Z,956.1234131
2022-11-07T10:36:57.647Z,956.112793
2022-11-07T10:37:58.812Z,956.0949707
2022-11-07T10:38:59.370Z,956.1696777
2022-11-07T10:39:59.928Z,956.1503296
2022-11-07T10:41:00.703Z,956.1379395
2022-11-07T10:42:01.223Z,956.088623
2022-11-07T10:43:02.835Z,956.1102905
2022-11-07T10:44:03.453Z,956.1281738
2022-11-07T10:45:04.020Z,956.0899048
2022-11-07T10:46:04.621Z,956.1428833
2022-11-07T10:47:05.213Z,956.1256104
2022-11-07T10:48:05.778Z,956.1490479
2022-11-07T10:49:06.328Z,956.1359253
2022-11-07T10:50:06.900Z,956.137207
2022-11-07T10:51:07.477Z,956.0705566
2022-11-07T10:52:08.518Z,956.0629883
2022-11-07T10:53:09.067Z,955.979248
2022-11-07T10:54:09.747Z,956.005127
2022-11-07T10:55:10.302Z,955.9921265
2022-11-07T10:56:10.852Z,955.9547119
2022-11-07T10:57:11.430Z,955.9851685
2022-11-07T10:58:12.188Z,955.9807739
2022-11-07T10:59:12.563Z,956.0061035
2022-11-07T11:00:13.597Z,955.9129639
2022-11-07T11:01:44.658Z,955.9384155
2022-11-07T11:02:45.999Z,955.9017334
2022-11-07T11:03:46.760Z,955.8982544
2022-11-07T11:04:50.740Z,955.8311768
2022-11-07T11:05:47.863Z,955.8407593
2022-11-07T11:06:48.484Z,955.8340454
2022-11-07T11:07:49.061Z,955.8342285